Terminal Aerodrome Forecast
Issued by NWS

Home | Current Version | Previous Version | Text Only | Print | Product List | Glossary Off
Versions: 1 2 3 4 5 6 7 8 9 10 11 12 13 14 15 16 17 18 19 20 21 22 23 24

985
FTUS43 KTOP 242320
TAFMHK
TAF
KMHK 242320Z 2500/2524 35005KT 6SM -TSRA BKN050CB
      TEMPO 2500/2503 4SM TSRA BKN015CB
     FM250300 05003KT P6SM -SHRA VCTS SCT025 BKN035CB
     FM250900 02004KT P6SM -SHRA VCTS BKN030CB
     FM251500 04005KT P6SM OVC030=

USA.gov is the U.S. government's official web portal to all federal, state and local government web resources and services.